Time;durP1;ratioP1;P1;durP2;ratioP2;P2;SDS_P1;SDS_P2;PMS_P1;PMS_P2;Temp;Humidity;BMP_temperature;BMP_pressure;BME280_temperature;BME280_humidity;BME280_pressure;Samples;Min_cycle;Max_cycle;Signal;HPM_P1;HPM_P2
2022/01/06 00:01:19;;;;;;;2.67;2.20;;;6.70;99.90;;;;;;5058866;28;20202;-91
2022/01/06 00:03:46;;;;;;;2.37;2.17;;;6.70;99.90;;;;;;5048634;28;20634;-90
2022/01/06 00:06:12;;;;;;;4.00;2.25;;;6.70;99.90;;;;;;5056995;28;20563;-91
2022/01/06 00:08:39;;;;;;;2.47;2.00;;;6.70;99.90;;;;;;5058752;28;20174;-91
2022/01/06 00:11:10;;;;;;;3.33;2.35;;;6.70;99.90;;;;;;5046126;28;20445;-92
2022/01/06 00:24:18;;;;;;;7.07;2.42;;;6.60;99.90;;;;;;5057480;28;20169;-91
2022/01/06 00:26:44;;;;;;;3.30;2.30;;;6.60;99.90;;;;;;5039534;28;20210;-88
2022/01/06 00:29:10;;;;;;;2.45;1.70;;;6.50;99.90;;;;;;5057514;28;20265;-91
2022/01/06 00:31:37;;;;;;;3.65;2.00;;;6.50;99.90;;;;;;5039391;28;20213;-89
2022/01/06 00:34:04;;;;;;;3.22;2.28;;;6.50;99.90;;;;;;5040227;28;20271;-91
2022/01/06 00:36:30;;;;;;;3.90;2.25;;;6.40;99.90;;;;;;5059956;28;20686;-91
2022/01/06 00:38:56;;;;;;;2.23;2.00;;;6.40;99.90;;;;;;5057567;28;20188;-91
2022/01/06 00:41:22;;;;;;;2.15;1.65;;;6.40;99.90;;;;;;5056994;28;20197;-88
2022/01/06 00:43:48;;;;;;;3.20;2.00;;;6.40;99.90;;;;;;5056635;28;20234;-92
2022/01/06 00:46:14;;;;;;;2.90;2.13;;;6.40;99.90;;;;;;5056918;28;20220;-89
2022/01/06 00:48:40;;;;;;;3.23;2.20;;;6.30;99.90;;;;;;5038499;28;20174;-89
2022/01/06 00:51:08;;;;;;;4.00;2.00;;;6.30;99.90;;;;;;5042651;28;20206;-91
2022/01/06 00:53:34;;;;;;;4.53;2.20;;;6.30;99.90;;;;;;5057260;28;20162;-91
2022/01/06 00:56:00;;;;;;;4.15;2.35;;;6.20;99.90;;;;;;5057136;28;20210;-89
2022/01/06 00:58:26;;;;;;;2.63;1.53;;;6.20;99.90;;;;;;5039063;28;20174;-91
2022/01/06 01:00:51;;;;;;;6.80;2.40;;;6.20;99.90;;;;;;5038966;28;20197;-91
2022/01/06 01:03:19;;;;;;;3.63;1.80;;;6.20;99.90;;;;;;5056965;28;20442;-90
2022/01/06 01:05:47;;;;;;;2.95;1.92;;;6.10;99.90;;;;;;5042105;28;20744;-92
2022/01/06 01:08:13;;;;;;;3.30;2.20;;;6.20;99.90;;;;;;5059110;28;20177;-87
2022/01/06 01:10:40;;;;;;;4.32;2.25;;;6.20;99.90;;;;;;5044217;28;20209;-89
2022/01/06 01:13:10;;;;;;;1.90;1.80;;;6.20;99.90;;;;;;5038590;28;20182;-91
2022/01/06 01:15:43;;;;;;;3.80;2.28;;;6.20;99.90;;;;;;5039110;28;20221;-88
2022/01/06 01:18:10;;;;;;;1.58;1.48;;;6.20;99.90;;;;;;5038338;28;20193;-88
2022/01/06 01:20:36;;;;;;;2.90;2.03;;;6.20;99.90;;;;;;5057168;28;20319;-91
2022/01/06 01:23:02;;;;;;;5.50;1.90;;;6.20;99.90;;;;;;5038808;28;20241;-91
2022/01/06 01:25:28;;;;;;;2.17;1.73;;;6.30;99.90;;;;;;5058063;28;20412;-89
2022/01/06 01:27:55;;;;;;;2.88;1.75;;;6.30;99.90;;;;;;5056193;28;20403;-89
2022/01/06 01:30:28;;;;;;;2.40;2.20;;;6.30;99.90;;;;;;5038196;28;20251;-89
2022/01/06 01:32:54;;;;;;;2.95;1.60;;;6.30;99.90;;;;;;5038165;28;20180;-88
2022/01/06 01:35:20;;;;;;;3.15;1.90;;;6.30;99.90;;;;;;5037849;28;20213;-88
2022/01/06 01:37:46;;;;;;;3.90;2.17;;;6.30;99.90;;;;;;5037864;28;20174;-88
2022/01/06 01:40:13;;;;;;;2.03;1.53;;;6.30;99.90;;;;;;5038214;28;20427;-89
2022/01/06 01:42:40;;;;;;;1.70;1.60;;;6.30;99.90;;;;;;5038525;28;20249;-89
2022/01/06 01:45:08;;;;;;;2.38;1.90;;;6.30;99.90;;;;;;5049712;28;20190;-88
2022/01/06 01:47:41;;;;;;;4.00;1.73;;;6.30;99.90;;;;;;5037937;28;20182;-89
2022/01/06 01:50:13;;;;;;;2.90;1.90;;;6.30;99.90;;;;;;5038344;28;20259;-90
2022/01/06 01:52:47;;;;;;;3.35;1.75;;;6.40;99.90;;;;;;5038557;28;20627;-89
2022/01/06 01:55:17;;;;;;;2.78;2.10;;;6.40;99.90;;;;;;5037614;28;20224;-91
2022/01/06 01:57:43;;;;;;;2.50;2.30;;;6.40;99.90;;;;;;5037496;28;20226;-89
2022/01/06 02:00:11;;;;;;;2.40;1.80;;;6.40;99.90;;;;;;5037367;28;20193;-89
2022/01/06 02:02:37;;;;;;;2.60;2.10;;;6.40;99.90;;;;;;5042300;28;20173;-89
2022/01/06 02:05:04;;;;;;;2.50;1.73;;;6.40;99.90;;;;;;5057358;28;20584;-91
2022/01/06 02:07:30;;;;;;;2.60;1.70;;;6.40;99.90;;;;;;5039231;28;20405;-89
2022/01/06 02:09:55;;;;;;;2.13;1.93;;;6.40;99.90;;;;;;5037456;28;20289;-91
2022/01/06 02:12:23;;;;;;;2.63;1.87;;;6.40;99.90;;;;;;5055815;28;20408;-89
2022/01/06 02:14:49;;;;;;;1.92;1.65;;;6.30;99.90;;;;;;5037729;28;20770;-91
2022/01/06 02:17:14;;;;;;;1.77;1.67;;;6.30;99.90;;;;;;5039985;28;20205;-91
2022/01/06 02:19:40;;;;;;;4.53;2.60;;;6.30;99.90;;;;;;5053295;28;20206;-88
2022/01/06 02:22:06;;;;;;;1.97;1.77;;;6.30;99.90;;;;;;5038145;28;20178;-87
2022/01/06 02:24:31;;;;;;;5.47;1.83;;;6.30;99.90;;;;;;5055051;28;20435;-89
2022/01/06 02:26:57;;;;;;;2.90;1.77;;;6.30;99.90;;;;;;5054946;28;20174;-91
2022/01/06 02:29:23;;;;;;;2.70;1.80;;;6.30;99.90;;;;;;5037199;28;20185;-88
2022/01/06 02:31:50;;;;;;;2.07;1.87;;;6.30;99.90;;;;;;5037263;28;20181;-91
2022/01/06 02:34:15;;;;;;;5.75;1.83;;;6.30;99.90;;;;;;5038404;28;20712;-89
2022/01/06 02:36:41;;;;;;;4.37;1.93;;;6.30;99.90;;;;;;5039151;28;20202;-90
2022/01/06 02:39:08;;;;;;;3.67;2.20;;;6.30;99.90;;;;;;5054954;28;20186;-88
2022/01/06 02:41:34;;;;;;;2.70;1.90;;;6.30;99.90;;;;;;5037188;28;20292;-89
2022/01/06 02:44:01;;;;;;;4.87;1.90;;;6.20;99.90;;;;;;5037213;28;20276;-88
2022/01/06 02:46:26;;;;;;;4.63;2.67;;;6.20;99.90;;;;;;5036872;28;20198;-91
2022/01/06 02:48:52;;;;;;;7.90;2.87;;;6.20;99.90;;;;;;5039255;28;20185;-89
2022/01/06 02:51:17;;;;;;;4.13;2.20;;;6.20;99.90;;;;;;5036869;28;20194;-92
2022/01/06 02:53:43;;;;;;;2.17;1.97;;;6.20;99.90;;;;;;5036838;28;20662;-91
2022/01/06 02:56:09;;;;;;;3.40;2.30;;;6.20;99.90;;;;;;5057184;28;20197;-92
2022/01/06 02:58:35;;;;;;;3.77;2.33;;;6.20;99.90;;;;;;5049344;28;20189;-88
2022/01/06 03:01:00;;;;;;;4.47;2.13;;;6.20;99.90;;;;;;5055225;28;20212;-92
2022/01/06 03:03:26;;;;;;;2.90;1.80;;;6.20;99.90;;;;;;5061674;28;20557;-91
2022/01/06 03:05:51;;;;;;;4.50;1.90;;;6.20;99.90;;;;;;5039420;28;20190;-89
2022/01/06 03:08:22;;;;;;;1.93;1.80;;;6.20;99.90;;;;;;5036835;28;20718;-88
2022/01/06 03:10:50;;;;;;;4.40;2.15;;;6.20;99.90;;;;;;5036737;28;20667;-91
2022/01/06 03:13:15;;;;;;;6.15;2.35;;;6.20;99.90;;;;;;5036098;28;20192;-91
2022/01/06 03:15:41;;;;;;;3.50;1.87;;;6.20;99.90;;;;;;5036440;28;20307;-89
2022/01/06 03:18:07;;;;;;;6.77;1.83;;;6.20;99.90;;;;;;5037908;28;20190;-88
2022/01/06 03:20:34;;;;;;;3.67;2.20;;;6.20;99.90;;;;;;5036610;28;20275;-89
2022/01/06 03:23:00;;;;;;;2.15;1.95;;;6.20;99.90;;;;;;5036462;28;20182;-91
2022/01/06 03:25:25;;;;;;;2.10;2.00;;;6.20;99.90;;;;;;5054563;28;20208;-88
2022/01/06 03:27:51;;;;;;;4.17;2.00;;;6.20;99.90;;;;;;5036185;28;20170;-89
2022/01/06 03:30:22;;;;;;;4.23;2.60;;;6.20;99.90;;;;;;5036492;28;20213;-89
2022/01/06 03:32:48;;;;;;;1.95;1.70;;;6.20;99.90;;;;;;5047104;28;20389;-89
2022/01/06 03:35:20;;;;;;;2.92;1.95;;;6.20;99.90;;;;;;5043060;28;20229;-91
2022/01/06 03:37:45;;;;;;;5.05;2.13;;;6.20;99.90;;;;;;5055243;28;20165;-92
2022/01/06 03:40:11;;;;;;;3.20;2.13;;;6.20;99.90;;;;;;5036338;28;20201;-89
2022/01/06 03:42:37;;;;;;;6.50;2.00;;;6.20;99.90;;;;;;5036235;28;20897;-92
2022/01/06 03:45:06;;;;;;;3.30;1.95;;;6.20;99.90;;;;;;5036467;28;20820;-92
2022/01/06 03:47:32;;;;;;;4.00;2.55;;;6.20;99.90;;;;;;5036350;28;20541;-88
2022/01/06 03:49:57;;;;;;;1.97;1.80;;;6.10;99.90;;;;;;5055155;28;20193;-91
2022/01/06 03:52:23;;;;;;;4.00;2.23;;;6.10;99.90;;;;;;5054552;28;20235;-91
2022/01/06 03:54:49;;;;;;;3.33;2.37;;;6.10;99.90;;;;;;5036322;28;20686;-89
2022/01/06 03:57:14;;;;;;;5.73;2.50;;;6.00;99.90;;;;;;5056361;28;20182;-89
2022/01/06 03:59:40;;;;;;;5.20;2.30;;;6.00;99.90;;;;;;5038459;28;20224;-88
2022/01/06 04:02:06;;;;;;;4.00;1.70;;;6.00;99.90;;;;;;5037245;28;20438;-92
2022/01/06 04:04:32;;;;;;;2.60;2.30;;;6.00;99.90;;;;;;5056115;28;20185;-88
2022/01/06 04:06:57;;;;;;;2.50;2.03;;;6.00;99.90;;;;;;5036769;28;20186;-88
2022/01/06 04:09:23;;;;;;;3.07;2.33;;;6.00;99.90;;;;;;5053709;28;20610;-88
2022/01/06 04:11:49;;;;;;;4.07;2.27;;;5.90;99.90;;;;;;5036000;28;20204;-91
2022/01/06 04:14:15;;;;;;;2.80;2.07;;;5.90;99.90;;;;;;5035894;28;20213;-92
2022/01/06 04:16:41;;;;;;;2.78;2.13;;;5.90;99.90;;;;;;5035994;28;20429;-90
2022/01/06 04:19:07;;;;;;;3.23;2.00;;;5.90;99.90;;;;;;5036549;28;20215;-91
2022/01/06 04:21:34;;;;;;;2.33;2.15;;;5.90;99.90;;;;;;5042669;28;20934;-92
2022/01/06 04:24:00;;;;;;;5.13;2.75;;;5.80;99.90;;;;;;5056993;28;20533;-89
2022/01/06 04:26:26;;;;;;;6.27;2.23;;;5.80;99.90;;;;;;5060056;28;20236;-91
2022/01/06 04:28:51;;;;;;;3.33;2.50;;;5.80;99.90;;;;;;5057125;28;20400;-91
2022/01/06 04:31:17;;;;;;;4.63;2.43;;;5.80;99.90;;;;;;5057310;28;20997;-92
2022/01/06 04:33:43;;;;;;;3.70;2.30;;;5.80;99.90;;;;;;5057017;28;20630;-89
2022/01/06 04:36:09;;;;;;;5.88;2.60;;;5.90;99.90;;;;;;5038886;28;20206;-89
2022/01/06 04:38:36;;;;;;;3.35;2.25;;;5.90;99.90;;;;;;5039491;28;20312;-88
2022/01/06 04:41:03;;;;;;;3.92;2.13;;;5.90;99.90;;;;;;5039441;28;20216;-92
2022/01/06 04:43:29;;;;;;;3.85;2.00;;;5.90;99.90;;;;;;5056751;28;20222;-89
2022/01/06 04:45:54;;;;;;;3.43;2.30;;;5.90;99.90;;;;;;5039208;28;20292;-89
2022/01/06 04:48:20;;;;;;;2.60;2.10;;;5.90;99.90;;;;;;5039777;28;20942;-90
2022/01/06 04:50:46;;;;;;;3.27;2.50;;;5.90;99.90;;;;;;5042871;28;20217;-88
2022/01/06 04:53:12;;;;;;;5.97;2.80;;;5.90;99.90;;;;;;5040696;28;20174;-91
2022/01/06 04:55:38;;;;;;;3.90;2.10;;;5.90;99.90;;;;;;5057993;28;20666;-89
2022/01/06 04:58:03;;;;;;;2.40;2.13;;;5.90;99.90;;;;;;5038739;28;20180;-91
2022/01/06 05:00:29;;;;;;;2.63;2.30;;;5.90;99.90;;;;;;5038925;28;20224;-89
2022/01/06 05:02:55;;;;;;;5.60;2.40;;;5.90;99.90;;;;;;5060630;28;20172;-91
2022/01/06 05:05:20;;;;;;;3.60;2.00;;;6.00;99.90;;;;;;5046476;28;20198;-90
2022/01/06 05:07:46;;;;;;;5.30;2.73;;;6.00;99.90;;;;;;5045613;28;20177;-92
2022/01/06 05:10:12;;;;;;;3.60;2.00;;;6.00;99.90;;;;;;5038937;28;20201;-92
2022/01/06 05:12:40;;;;;;;2.50;2.30;;;6.00;99.90;;;;;;5036618;28;20943;-91
2022/01/06 05:15:05;;;;;;;3.53;2.50;;;5.90;99.90;;;;;;5038378;28;20225;-92
2022/01/06 05:17:31;;;;;;;3.20;2.00;;;5.90;99.90;;;;;;5038698;28;20185;-89
2022/01/06 05:19:57;;;;;;;2.40;2.00;;;5.90;99.90;;;;;;5037808;28;20455;-92
2022/01/06 05:22:23;;;;;;;4.50;2.87;;;5.90;99.90;;;;;;5038975;28;20901;-92
2022/01/06 05:24:48;;;;;;;2.80;1.93;;;6.10;99.90;;;;;;5018805;28;20260;-92
2022/01/06 05:27:14;;;;;;;2.10;2.00;;;6.50;99.90;;;;;;5020425;28;20220;-91
2022/01/06 05:29:39;;;;;;;5.23;2.50;;;7.00;99.90;;;;;;5013992;28;20187;-89
2022/01/06 05:32:06;;;;;;;12.40;1.70;;;7.30;99.90;;;;;;4997594;28;20206;-92
2022/01/06 05:34:31;;;;;;;4.85;2.28;;;7.90;99.90;;;;;;4996929;28;20230;-89
2022/01/06 05:36:57;;;;;;;5.50;2.50;;;8.20;99.90;;;;;;5000473;28;20347;-88
2022/01/06 05:39:23;;;;;;;3.30;2.70;;;8.50;99.90;;;;;;4996743;28;20202;-88
2022/01/06 05:41:48;;;;;;;2.47;2.27;;;8.70;99.90;;;;;;4997006;28;20179;-88
2022/01/06 05:44:14;;;;;;;2.37;2.17;;;8.80;99.90;;;;;;5014407;28;20234;-92
2022/01/06 05:46:39;;;;;;;4.60;2.50;;;8.80;99.90;;;;;;4998549;28;20207;-89
2022/01/06 05:49:05;;;;;;;2.93;2.27;;;9.00;99.90;;;;;;5006455;28;20203;-92
2022/01/06 05:51:31;;;;;;;2.80;2.40;;;8.90;99.90;;;;;;5043875;28;20238;-88
2022/01/06 05:53:57;;;;;;;4.30;2.93;;;8.90;99.90;;;;;;5015729;28;20615;-88
2022/01/06 05:56:23;;;;;;;4.70;3.47;;;9.00;99.90;;;;;;5033601;28;20218;-89
2022/01/06 05:58:48;;;;;;;6.97;3.33;;;9.00;99.90;;;;;;5033778;28;20702;-92
2022/01/06 06:01:14;;;;;;;2.77;2.40;;;9.00;99.90;;;;;;5018216;28;20521;-90
2022/01/06 06:03:40;;;;;;;6.90;4.03;;;9.10;99.90;;;;;;5030249;28;20211;-90
2022/01/06 06:06:05;;;;;;;3.27;3.00;;;9.00;99.90;;;;;;5024650;28;20205;-92
2022/01/06 06:08:31;;;;;;;6.97;3.20;;;8.60;99.90;;;;;;5033511;28;20181;-88
2022/01/06 06:10:57;;;;;;;5.73;2.93;;;8.20;99.90;;;;;;5017508;28;20544;-89
2022/01/06 06:13:23;;;;;;;4.27;2.90;;;7.90;99.90;;;;;;5019271;28;20192;-92
2022/01/06 06:15:48;;;;;;;5.17;3.77;;;7.70;99.90;;;;;;5019759;28;20225;-91
2022/01/06 06:18:14;;;;;;;4.67;2.93;;;7.50;99.90;;;;;;5039142;28;20182;-89
2022/01/06 06:20:40;;;;;;;4.53;2.70;;;7.30;99.90;;;;;;5035838;28;20553;-90
2022/01/06 06:23:06;;;;;;;6.20;3.33;;;7.10;99.90;;;;;;5035227;28;20175;-89
2022/01/06 06:25:32;;;;;;;5.40;3.20;;;6.90;99.90;;;;;;5022001;28;20258;-92
2022/01/06 06:27:58;;;;;;;4.37;2.77;;;6.80;99.90;;;;;;5027244;28;20390;-89
2022/01/06 06:30:24;;;;;;;4.55;2.78;;;6.60;99.90;;;;;;5035670;28;20422;-87
2022/01/06 06:32:49;;;;;;;4.43;2.80;;;6.50;99.90;;;;;;5035364;28;20238;-92
2022/01/06 06:35:15;;;;;;;6.60;3.00;;;6.30;99.90;;;;;;5017329;28;20229;-92
2022/01/06 06:37:41;;;;;;;3.57;2.33;;;6.30;99.90;;;;;;5031047;28;20183;-91
2022/01/06 06:40:08;;;;;;;5.40;3.30;;;6.20;99.90;;;;;;5017686;28;20217;-92
2022/01/06 06:42:33;;;;;;;12.65;3.00;;;6.10;99.90;;;;;;5016954;28;20253;-87
2022/01/06 06:44:59;;;;;;;4.50;3.27;;;6.00;99.90;;;;;;5034477;28;20222;-92
2022/01/06 06:47:24;;;;;;;5.73;2.63;;;6.00;99.90;;;;;;5034089;28;20175;-91
2022/01/06 06:49:50;;;;;;;8.60;2.77;;;5.90;99.90;;;;;;5017365;28;20210;-92
2022/01/06 06:52:17;;;;;;;3.40;2.57;;;5.90;99.90;;;;;;5035071;28;20182;-88
2022/01/06 06:54:43;;;;;;;4.88;2.42;;;5.80;99.90;;;;;;5013790;28;20584;-91
2022/01/06 06:57:09;;;;;;;5.75;2.60;;;5.80;99.90;;;;;;4998241;28;20237;-88
2022/01/06 06:59:35;;;;;;;7.32;3.30;;;5.80;99.90;;;;;;5012681;28;20186;-92
2022/01/06 07:02:01;;;;;;;3.38;2.53;;;5.80;99.90;;;;;;5015360;28;20174;-92
2022/01/06 07:04:26;;;;;;;3.00;2.33;;;5.80;99.90;;;;;;5023313;28;20207;-92
2022/01/06 07:06:52;;;;;;;4.07;2.97;;;5.70;99.90;;;;;;5017025;28;20671;-89
2022/01/06 07:09:17;;;;;;;4.30;3.17;;;5.70;99.90;;;;;;5031263;28;20245;-92
2022/01/06 07:11:43;;;;;;;3.60;2.80;;;5.80;99.90;;;;;;5014721;28;20205;-89
2022/01/06 07:14:09;;;;;;;3.73;2.70;;;5.80;99.90;;;;;;5017791;28;20249;-88
2022/01/06 07:16:34;;;;;;;3.30;2.33;;;5.80;99.90;;;;;;5031287;28;20534;-89
2022/01/06 07:19:00;;;;;;;3.67;2.57;;;5.80;99.90;;;;;;5023885;28;20178;-90
2022/01/06 07:21:26;;;;;;;3.63;2.37;;;5.80;99.90;;;;;;5016935;28;20726;-89
2022/01/06 07:23:54;;;;;;;3.00;2.63;;;5.80;99.90;;;;;;5017137;28;20221;-88
2022/01/06 07:26:20;;;;;;;3.25;2.58;;;5.80;99.90;;;;;;5020517;28;20233;-88
2022/01/06 07:28:45;;;;;;;2.83;2.63;;;5.80;99.90;;;;;;4989863;28;20636;-90
2022/01/06 07:31:11;;;;;;;3.97;2.90;;;5.80;99.90;;;;;;5019186;28;20301;-89
2022/01/06 07:33:37;;;;;;;6.27;3.07;;;5.80;99.90;;;;;;5013286;28;20185;-88
2022/01/06 07:36:04;;;;;;;4.95;3.05;;;5.80;99.90;;;;;;5004533;28;20475;-88
2022/01/06 07:38:30;;;;;;;5.82;4.18;;;5.80;99.90;;;;;;5031342;28;20183;-92
2022/01/06 07:40:55;;;;;;;6.83;3.77;;;5.80;99.90;;;;;;5036358;28;20186;-88
2022/01/06 07:43:22;;;;;;;11.30;7.03;;;5.80;99.90;;;;;;5022404;28;20880;-89
2022/01/06 07:45:49;;;;;;;9.05;6.40;;;5.80;99.90;;;;;;5015379;28;20226;-92
2022/01/06 07:48:18;;;;;;;26.90;15.45;;;5.80;99.90;;;;;;5032278;28;20228;-91
2022/01/06 07:50:45;;;;;;;18.63;12.75;;;5.80;99.90;;;;;;5020121;28;20679;-89
2022/01/06 07:53:11;;;;;;;6.90;4.45;;;5.80;99.90;;;;;;5024936;28;20195;-89
2022/01/06 07:55:37;;;;;;;4.53;3.27;;;5.80;99.90;;;;;;5025833;28;20278;-92
2022/01/06 07:58:04;;;;;;;3.40;3.10;;;5.80;99.90;;;;;;5033506;28;20425;-88
2022/01/06 08:00:31;;;;;;;3.88;3.00;;;5.80;99.90;;;;;;5032969;28;20220;-88
2022/01/06 08:02:57;;;;;;;6.65;3.15;;;5.80;99.90;;;;;;5014816;28;20187;-92
2022/01/06 08:05:25;;;;;;;5.53;3.13;;;5.90;99.90;;;;;;5035002;28;20252;-88
2022/01/06 08:07:51;;;;;;;6.20;4.88;;;5.90;99.90;;;;;;5026812;28;20436;-88
2022/01/06 08:10:17;;;;;;;4.53;3.60;;;5.90;99.90;;;;;;5013926;28;20214;-89
2022/01/06 08:12:43;;;;;;;5.20;3.55;;;5.90;99.90;;;;;;5045467;28;20195;-90
2022/01/06 08:15:10;;;;;;;5.82;4.15;;;6.00;99.90;;;;;;5032484;28;20252;-89
2022/01/06 08:17:36;;;;;;;6.28;4.05;;;6.00;99.90;;;;;;5013997;28;20266;-91
2022/01/06 08:20:08;;;;;;;7.60;4.13;;;6.00;99.90;;;;;;4997995;28;20223;-88
2022/01/06 08:22:35;;;;;;;8.95;3.97;;;6.00;99.90;;;;;;5012976;28;20171;-88
2022/01/06 08:25:02;;;;;;;4.47;3.15;;;6.00;99.90;;;;;;4995547;28;20265;-91
2022/01/06 08:27:28;;;;;;;3.97;3.60;;;6.10;99.90;;;;;;4998969;28;20179;-91
2022/01/06 08:29:53;;;;;;;3.40;3.10;;;6.20;99.90;;;;;;4999573;28;20214;-92
2022/01/06 08:32:19;;;;;;;6.10;3.70;;;6.60;99.90;;;;;;5028131;28;20182;-92
2022/01/06 08:34:45;;;;;;;4.32;3.03;;;7.20;99.90;;;;;;5044629;28;20234;-92
2022/01/06 08:37:11;;;;;;;4.33;3.33;;;7.80;99.90;;;;;;5016999;28;20178;-88
2022/01/06 08:39:36;;;;;;;7.33;3.10;;;8.40;99.90;;;;;;5019026;28;20182;-91
2022/01/06 08:42:03;;;;;;;4.27;3.00;;;9.10;99.90;;;;;;5036304;28;20579;-88
2022/01/06 08:44:29;;;;;;;5.25;2.97;;;9.70;99.90;;;;;;5018860;28;20226;-92
2022/01/06 08:47:00;;;;;;;4.93;3.00;;;10.00;99.90;;;;;;5018713;28;20189;-88
2022/01/06 08:49:26;;;;;;;5.90;3.58;;;10.30;99.90;;;;;;5018402;28;20181;-91
2022/01/06 08:51:52;;;;;;;5.43;2.50;;;10.40;99.90;;;;;;5014414;28;20187;-89
2022/01/06 08:54:18;;;;;;;4.70;3.80;;;10.20;99.90;;;;;;5019292;28;20222;-88
2022/01/06 08:56:43;;;;;;;10.90;4.30;;;9.90;99.90;;;;;;5019969;28;20209;-91
2022/01/06 08:59:09;;;;;;;7.97;4.80;;;9.60;99.90;;;;;;5017651;28;20170;-87
2022/01/06 09:01:35;;;;;;;4.97;3.63;;;9.30;99.90;;;;;;5018374;28;20281;-88
2022/01/06 09:04:00;;;;;;;4.83;3.40;;;9.20;99.90;;;;;;5033627;28;20182;-88
2022/01/06 09:06:26;;;;;;;4.93;3.47;;;9.00;99.90;;;;;;5015475;28;20214;-89
2022/01/06 09:08:52;;;;;;;3.70;3.23;;;8.90;99.90;;;;;;5034886;28;20201;-88
2022/01/06 09:11:18;;;;;;;5.23;4.57;;;8.70;99.90;;;;;;5002653;28;20207;-91
2022/01/06 09:13:44;;;;;;;5.47;3.40;;;8.60;99.90;;;;;;5035380;28;20389;-92
2022/01/06 09:16:10;;;;;;;5.80;3.33;;;8.50;99.90;;;;;;5015729;28;20696;-92
2022/01/06 09:18:37;;;;;;;5.95;3.88;;;8.40;99.90;;;;;;5016492;28;20178;-92
2022/01/06 09:21:04;;;;;;;6.35;4.60;;;8.30;99.90;;;;;;5016101;28;20285;-92
2022/01/06 09:23:29;;;;;;;5.57;3.45;;;8.30;99.90;;;;;;5019886;28;20221;-91
2022/01/06 09:25:55;;;;;;;7.73;3.60;;;8.20;99.90;;;;;;5017033;28;20222;-89
2022/01/06 09:28:21;;;;;;;5.10;3.30;;;8.10;99.90;;;;;;5015903;28;20190;-89
2022/01/06 09:30:47;;;;;;;5.93;3.65;;;8.10;99.90;;;;;;5016498;28;20195;-92
2022/01/06 09:33:13;;;;;;;4.03;3.33;;;8.00;99.90;;;;;;5040384;28;20167;-88
2022/01/06 09:35:39;;;;;;;5.15;2.70;;;7.80;99.90;;;;;;5034220;28;20244;-92
2022/01/06 09:38:05;;;;;;;5.50;3.40;;;7.70;99.90;;;;;;5014144;28;20281;-89
2022/01/06 09:40:30;;;;;;;4.70;3.17;;;7.60;99.90;;;;;;5012133;28;20285;-88
2022/01/06 09:42:56;;;;;;;5.57;3.40;;;7.60;99.90;;;;;;5014501;28;20230;-88
2022/01/06 09:45:27;;;;;;;4.67;3.00;;;7.50;99.90;;;;;;5034856;28;20197;-91
2022/01/06 09:47:53;;;;;;;3.97;3.53;;;7.40;99.90;;;;;;5014675;28;20277;-92
2022/01/06 09:50:18;;;;;;;6.20;3.90;;;7.40;99.90;;;;;;5015149;28;20217;-90
2022/01/06 09:52:45;;;;;;;5.53;3.90;;;7.30;99.90;;;;;;5027444;28;20194;-88
2022/01/06 09:55:11;;;;;;;3.78;3.42;;;7.20;99.90;;;;;;5012697;28;20233;-92
2022/01/06 09:57:37;;;;;;;4.93;3.22;;;7.20;99.90;;;;;;5020384;28;20187;-87
2022/01/06 10:00:10;;;;;;;5.27;3.33;;;7.10;99.90;;;;;;5025786;28;20286;-92
2022/01/06 10:02:38;;;;;;;8.75;4.82;;;7.10;99.90;;;;;;5006813;28;20213;-91
2022/01/06 10:05:05;;;;;;;6.78;3.58;;;7.00;99.90;;;;;;5011154;28;20230;-88
2022/01/06 10:07:39;;;;;;;6.65;4.20;;;7.00;99.90;;;;;;5001955;28;20183;-88
2022/01/06 10:10:10;;;;;;;8.00;3.80;;;7.00;99.90;;;;;;5005637;28;20194;-88
2022/01/06 10:12:39;;;;;;;6.63;4.85;;;6.90;99.90;;;;;;5005944;28;20284;-88
2022/01/06 10:15:17;;;;;;;5.88;3.80;;;6.90;99.90;;;;;;5003575;28;20223;-91
2022/01/06 10:17:43;;;;;;;6.88;3.40;;;6.90;99.90;;;;;;5035263;28;20569;-92
2022/01/06 10:20:22;;;;;;;5.38;3.58;;;6.90;99.90;;;;;;5011993;28;20710;-91
2022/01/06 10:22:56;;;;;;;6.20;4.25;;;6.90;99.90;;;;;;5013206;28;20217;-91
2022/01/06 10:25:24;;;;;;;8.10;5.90;;;6.90;99.90;;;;;;5029633;28;20202;-89
2022/01/06 10:27:56;;;;;;;6.72;4.25;;;6.80;99.90;;;;;;5028154;28;20191;-92
2022/01/06 10:30:22;;;;;;;9.30;6.75;;;6.90;99.90;;;;;;5039536;28;20175;-87
2022/01/06 10:32:49;;;;;;;11.23;5.82;;;6.80;99.90;;;;;;5033709;28;20264;-89
2022/01/06 10:35:17;;;;;;;8.30;5.45;;;6.80;99.90;;;;;;5021073;28;20245;-92
2022/01/06 10:37:48;;;;;;;9.85;5.65;;;6.80;99.90;;;;;;5029490;28;20878;-89
2022/01/06 10:40:20;;;;;;;7.10;4.07;;;6.70;99.90;;;;;;5019119;28;20226;-89
2022/01/06 10:42:48;;;;;;;5.90;4.70;;;6.80;99.90;;;;;;5028281;28;20237;-89
2022/01/06 10:45:19;;;;;;;6.82;3.80;;;6.80;99.90;;;;;;5011648;28;20198;-92
2022/01/06 10:47:49;;;;;;;6.10;4.75;;;6.80;99.90;;;;;;5025644;28;20193;-89
2022/01/06 10:50:24;;;;;;;7.65;5.90;;;6.80;99.90;;;;;;5027738;28;20221;-89
2022/01/06 10:52:55;;;;;;;12.10;5.72;;;6.80;99.90;;;;;;5013346;28;20190;-91
2022/01/06 10:55:28;;;;;;;6.85;5.55;;;6.90;99.90;;;;;;5030147;28;20272;-89
2022/01/06 10:58:01;;;;;;;5.90;4.45;;;6.90;99.90;;;;;;5015844;28;20212;-92
2022/01/06 11:00:37;;;;;;;9.90;4.97;;;6.90;99.90;;;;;;5025127;28;20209;-90
2022/01/06 11:03:14;;;;;;;7.53;4.22;;;6.90;99.90;;;;;;5005343;28;20200;-91
2022/01/06 11:05:52;;;;;;;5.70;4.57;;;6.90;99.90;;;;;;5025877;28;20615;-89
2022/01/06 11:08:26;;;;;;;8.10;4.78;;;6.90;99.90;;;;;;5030634;28;20212;-92
2022/01/06 11:11:14;;;;;;;5.25;4.75;;;6.90;99.90;;;;;;5024600;28;20210;-88
2022/01/06 11:13:46;;;;;;;5.63;4.43;;;7.00;99.90;;;;;;5037493;28;20185;-92
2022/01/06 11:16:16;;;;;;;4.28;3.35;;;7.00;99.90;;;;;;5036949;28;20217;-90
2022/01/06 11:18:48;;;;;;;6.75;3.70;;;7.10;99.90;;;;;;5046098;28;20193;-92
2022/01/06 11:21:17;;;;;;;4.20;3.70;;;7.10;99.90;;;;;;5050926;28;20547;-89
2022/01/06 11:23:43;;;;;;;5.43;3.55;;;7.20;99.90;;;;;;5040542;28;20173;-88
2022/01/06 11:26:16;;;;;;;5.75;3.75;;;7.20;99.90;;;;;;5036302;28;20197;-90
2022/01/06 11:28:43;;;;;;;3.90;3.03;;;7.20;99.90;;;;;;5053111;28;20178;-89
2022/01/06 11:31:17;;;;;;;5.38;3.60;;;7.30;99.90;;;;;;5035688;28;20198;-89
2022/01/06 11:33:44;;;;;;;4.93;3.60;;;7.40;99.90;;;;;;5045109;28;20189;-90
2022/01/06 11:36:31;;;;;;;3.83;3.15;;;7.40;99.90;;;;;;5063361;28;20252;-88
2022/01/06 11:38:58;;;;;;;3.80;3.20;;;7.40;99.90;;;;;;5038513;28;20259;-91
2022/01/06 11:41:38;;;;;;;5.38;3.50;;;7.50;99.90;;;;;;5052575;28;20273;-92
2022/01/06 11:44:20;;;;;;;7.80;4.65;;;7.50;99.90;;;;;;5032750;28;20186;-88
2022/01/06 11:46:48;;;;;;;5.88;3.70;;;7.50;99.90;;;;;;5029800;28;20235;-91
2022/01/06 11:49:15;;;;;;;4.90;4.25;;;7.50;99.90;;;;;;5027315;28;20182;-87
2022/01/06 11:51:42;;;;;;;6.05;3.03;;;7.50;99.90;;;;;;5044201;28;20208;-89
2022/01/06 11:54:16;;;;;;;7.30;5.05;;;7.50;99.90;;;;;;5036296;28;20178;-89
2022/01/06 11:56:51;;;;;;;5.03;3.00;;;7.50;99.90;;;;;;5048920;28;20201;-92
2022/01/06 11:59:32;;;;;;;4.20;3.60;;;7.50;99.90;;;;;;5043915;28;20174;-92
2022/01/06 12:01:59;;;;;;;6.85;3.35;;;7.60;99.90;;;;;;5040057;28;20221;-89
2022/01/06 12:04:25;;;;;;;4.97;3.00;;;7.60;99.90;;;;;;5045103;28;20864;-88
2022/01/06 12:07:01;;;;;;;3.10;2.80;;;7.70;99.90;;;;;;5048150;28;20248;-92
2022/01/06 12:09:27;;;;;;;9.38;5.20;;;7.60;99.90;;;;;;5064368;28;20188;-92
2022/01/06 12:12:03;;;;;;;7.70;3.23;;;7.70;99.90;;;;;;5062693;28;20189;-90
2022/01/06 12:14:29;;;;;;;5.65;4.30;;;7.70;99.90;;;;;;5037933;28;20736;-92
2022/01/06 12:17:06;;;;;;;4.73;3.77;;;7.70;99.90;;;;;;5051630;28;20182;-89
2022/01/06 12:19:32;;;;;;;5.65;3.35;;;7.70;99.90;;;;;;5031492;28;20446;-89
2022/01/06 12:21:58;;;;;;;5.88;4.30;;;7.70;99.90;;;;;;5028260;28;20192;-92
2022/01/06 12:24:25;;;;;;;7.65;4.25;;;7.80;99.90;;;;;;5053875;28;20710;-89
2022/01/06 12:26:51;;;;;;;7.27;4.40;;;7.80;99.90;;;;;;5049449;28;20452;-93
2022/01/06 12:29:27;;;;;;;9.90;5.20;;;7.80;99.90;;;;;;5049896;28;20422;-92
2022/01/06 12:32:12;;;;;;;24.15;9.82;;;7.90;99.90;;;;;;5031274;28;20277;-94
2022/01/06 12:34:43;;;;;;;18.00;8.23;;;7.90;99.90;;;;;;5040538;28;20671;-93
2022/01/06 12:37:09;;;;;;;9.48;5.70;;;7.90;99.90;;;;;;5057543;28;20178;-89
2022/01/06 12:39:35;;;;;;;15.93;5.80;;;7.90;99.90;;;;;;5020830;28;20521;-89
2022/01/06 12:42:04;;;;;;;8.13;3.90;;;7.90;99.90;;;;;;5035408;28;20182;-89
2022/01/06 12:44:29;;;;;;;6.95;5.07;;;7.90;99.90;;;;;;5052919;28;20481;-93
2022/01/06 12:46:57;;;;;;;9.77;3.70;;;7.90;99.90;;;;;;5036389;28;20281;-89
2022/01/06 12:49:24;;;;;;;4.60;3.20;;;7.80;99.90;;;;;;5054769;28;20177;-93
2022/01/06 12:51:51;;;;;;;5.75;3.30;;;7.80;99.90;;;;;;5049235;28;20596;-95
2022/01/06 12:54:19;;;;;;;6.35;4.13;;;7.80;99.90;;;;;;5041991;28;20227;-93
2022/01/06 12:56:47;;;;;;;5.43;3.47;;;7.80;99.90;;;;;;5041922;28;20247;-92
2022/01/06 12:59:13;;;;;;;5.38;2.80;;;7.90;99.90;;;;;;5062560;28;20170;-94
2022/01/06 13:01:41;;;;;;;6.50;3.75;;;7.90;99.90;;;;;;5049607;28;20206;-94
2022/01/06 13:04:09;;;;;;;5.93;3.65;;;7.90;99.90;;;;;;5038631;28;20188;-95
2022/01/06 13:06:36;;;;;;;5.22;3.85;;;7.90;99.90;;;;;;5030320;28;20245;-93